createdAt,value
2024-04-25T00:01:00.770Z,2.15
2024-04-25T00:03:50.176Z,2.14
2024-04-25T00:06:18.484Z,2.08
2024-04-25T00:08:46.802Z,2.09
2024-04-25T00:11:18.397Z,2.13
2024-04-25T00:15:02.937Z,2.15
2024-04-25T00:17:31.172Z,2.07
2024-04-25T00:20:00.427Z,2.01
2024-04-25T00:22:28.806Z,1.97
2024-04-25T00:24:57.002Z,1.97
2024-04-25T00:27:25.312Z,1.96
2024-04-25T00:29:55.608Z,2.00
2024-04-25T00:32:24.219Z,2.05
2024-04-25T00:34:52.534Z,2.11
2024-04-25T00:37:20.734Z,2.15
2024-04-25T00:39:49.063Z,2.19
2024-04-25T00:42:22.032Z,2.19
2024-04-25T00:44:50.775Z,2.18
2024-04-25T00:47:21.482Z,2.18
2024-04-25T00:49:52.834Z,2.22
2024-04-25T00:52:21.467Z,2.27
2024-04-25T00:54:50.432Z,2.34
2024-04-25T00:57:20.193Z,2.40
2024-04-25T00:59:51.430Z,2.40
2024-04-25T01:02:20.887Z,2.40
2024-04-25T01:04:51.031Z,2.40
2024-04-25T01:07:20.039Z,2.41
2024-04-25T01:09:48.270Z,2.40
2024-04-25T01:12:18.890Z,2.40
2024-04-25T01:14:47.188Z,2.41
2024-04-25T01:17:15.386Z,2.43
2024-04-25T01:19:44.247Z,2.45
2024-04-25T01:22:13.703Z,2.49
2024-04-25T01:24:41.932Z,2.51
2024-04-25T01:27:10.950Z,2.54
2024-04-25T01:29:40.706Z,2.55
2024-04-25T01:32:09.849Z,2.49
2024-04-25T01:34:38.270Z,2.39
2024-04-25T01:37:06.494Z,2.35
2024-04-25T01:39:35.414Z,2.29
2024-04-25T01:42:03.845Z,2.25
2024-04-25T01:44:32.235Z,2.25
2024-04-25T01:47:00.484Z,2.25
2024-04-25T01:49:28.805Z,2.26
2024-04-25T01:51:57.178Z,2.25
2024-04-25T01:54:25.416Z,2.23
2024-04-25T01:56:54.176Z,2.21
2024-04-25T01:59:22.562Z,2.22
2024-04-25T02:01:50.817Z,2.22
2024-04-25T02:04:19.132Z,2.17
2024-04-25T02:06:47.314Z,2.12
2024-04-25T02:09:15.673Z,2.09
2024-04-25T02:11:44.034Z,2.13
2024-04-25T02:14:12.221Z,2.21
2024-04-25T02:16:40.398Z,2.28
2024-04-25T02:19:08.736Z,2.34
2024-04-25T02:21:55.500Z,2.42
2024-04-25T02:24:42.371Z,2.49
2024-04-25T02:27:10.697Z,2.47
2024-04-25T02:29:39.118Z,2.44
2024-04-25T02:32:07.655Z,2.41
2024-04-25T02:34:36.120Z,2.39
2024-04-25T02:37:04.514Z,2.40
2024-04-25T02:39:32.932Z,2.46
2024-04-25T02:42:01.136Z,2.52
2024-04-25T02:44:29.332Z,2.59
2024-04-25T02:46:57.502Z,2.68
2024-04-25T02:49:28.365Z,2.76
2024-04-25T02:51:56.614Z,2.80
2024-04-25T02:54:24.809Z,2.82
2024-04-25T02:56:53.178Z,2.85
2024-04-25T02:59:21.486Z,2.88
2024-04-25T03:01:49.766Z,2.90
2024-04-25T03:04:18.155Z,2.88
2024-04-25T03:06:46.390Z,2.87
2024-04-25T03:09:14.709Z,2.89
2024-04-25T03:11:43.208Z,2.93
2024-04-25T03:14:11.510Z,3.00
2024-04-25T03:16:39.943Z,3.06
2024-04-25T03:19:08.308Z,3.08
2024-04-25T03:21:36.664Z,3.09
2024-04-25T03:24:05.039Z,3.10
2024-04-25T03:26:33.315Z,3.11
2024-04-25T03:29:01.772Z,3.11
2024-04-25T03:31:30.168Z,3.14
2024-04-25T03:33:58.464Z,3.18
2024-04-25T03:36:26.671Z,3.23
2024-04-25T03:38:55.231Z,3.28
2024-04-25T03:41:23.474Z,3.35
2024-04-25T03:43:51.790Z,3.43
2024-04-25T03:46:19.923Z,3.50
2024-04-25T03:48:48.170Z,3.63
2024-04-25T03:51:17.199Z,4.07
2024-04-25T03:53:45.580Z,4.37
2024-04-25T03:56:13.867Z,4.52
2024-04-25T03:58:42.376Z,4.64
2024-04-25T04:01:10.702Z,4.79
2024-04-25T04:03:39.011Z,5.04
2024-04-25T04:06:07.240Z,5.22
2024-04-25T04:08:37.438Z,5.34
2024-04-25T04:11:06.318Z,5.27
2024-04-25T04:13:36.704Z,5.15
2024-04-25T04:16:09.286Z,5.03
2024-04-25T04:18:38.714Z,4.94
2024-04-25T04:21:09.182Z,4.85
2024-04-25T04:23:38.749Z,4.78
2024-04-25T04:26:07.344Z,4.76
2024-04-25T04:28:35.740Z,4.78
2024-04-25T04:31:04.234Z,4.82
2024-04-25T04:36:04.761Z,4.91
2024-04-25T04:38:33.191Z,4.96
2024-04-25T04:41:01.422Z,4.94
2024-04-25T04:43:29.717Z,4.92
2024-04-25T04:45:59.092Z,4.91
2024-04-25T04:48:34.324Z,4.87
2024-04-25T04:51:03.915Z,4.89
2024-04-25T04:53:32.130Z,4.93
2024-04-25T04:56:00.527Z,4.96
2024-04-25T04:58:28.891Z,4.96
2024-04-25T05:00:57.320Z,4.96
2024-04-25T05:03:25.844Z,4.95
2024-04-25T05:05:54.204Z,4.93
2024-04-25T05:08:23.013Z,4.93
2024-04-25T05:10:51.428Z,4.97
2024-04-25T05:13:20.465Z,5.02
2024-04-25T05:15:48.951Z,5.08
2024-04-25T05:18:17.338Z,5.17
2024-04-25T05:20:45.551Z,5.26
2024-04-25T05:23:14.041Z,5.31
2024-04-25T05:25:42.423Z,5.35
2024-04-25T05:28:10.639Z,5.37
2024-04-25T05:30:39.019Z,5.38
2024-04-25T05:33:08.597Z,5.38
2024-04-25T05:35:37.176Z,5.41
2024-04-25T05:38:05.842Z,5.48
2024-04-25T05:40:34.082Z,5.58
2024-04-25T05:43:02.324Z,5.69
2024-04-25T05:45:30.483Z,5.81
2024-04-25T05:47:59.048Z,5.91
2024-04-25T05:50:27.651Z,5.96
2024-04-25T05:52:55.858Z,5.99
2024-04-25T05:55:24.445Z,6.07
2024-04-25T05:57:52.711Z,6.22
2024-04-25T06:00:21.084Z,6.39
2024-04-25T06:02:50.208Z,6.60
2024-04-25T06:05:18.979Z,6.81
2024-04-25T06:07:47.538Z,7.04
2024-04-25T06:10:15.883Z,7.32
2024-04-25T06:12:44.654Z,7.62
2024-04-25T06:15:13.351Z,7.85
2024-04-25T06:17:42.325Z,8.03
2024-04-25T06:20:13.704Z,8.10
2024-04-25T06:22:42.031Z,8.15
2024-04-25T06:25:10.336Z,8.13
2024-04-25T06:27:38.743Z,8.00
2024-04-25T06:30:07.408Z,7.97
2024-04-25T06:32:38.692Z,7.86
2024-04-25T06:35:07.943Z,7.73
2024-04-25T06:37:36.317Z,7.53
2024-04-25T06:40:04.953Z,7.50
2024-04-25T06:42:33.293Z,7.46
2024-04-25T06:45:01.752Z,7.50
2024-04-25T06:47:30.233Z,7.55
2024-04-25T06:49:58.453Z,7.53
2024-04-25T06:52:26.769Z,7.42
2024-04-25T06:54:55.011Z,7.41
2024-04-25T06:57:23.263Z,7.33
2024-04-25T06:59:54.020Z,7.29
2024-04-25T07:02:25.664Z,7.26
2024-04-25T07:04:56.458Z,7.23
2024-04-25T07:07:26.120Z,7.24
2024-04-25T07:09:54.381Z,7.23
2024-04-25T07:12:22.645Z,7.28
2024-04-25T07:14:50.962Z,7.27
2024-04-25T07:17:19.432Z,7.30
2024-04-25T07:19:47.835Z,7.32
2024-04-25T07:22:16.390Z,7.30
2024-04-25T07:24:44.770Z,7.24
2024-04-25T07:27:13.285Z,7.19
2024-04-25T07:29:46.179Z,7.21
2024-04-25T07:32:18.466Z,7.27
2024-04-25T07:34:47.032Z,7.32
2024-04-25T07:37:15.365Z,7.35
2024-04-25T07:39:46.613Z,7.44
2024-04-25T07:42:15.658Z,7.53
2024-04-25T07:44:44.221Z,7.63
2024-04-25T07:47:12.828Z,7.64
2024-04-25T07:49:41.128Z,7.65
2024-04-25T07:52:09.756Z,7.76
2024-04-25T07:54:38.025Z,7.93
2024-04-25T07:57:06.345Z,8.10
2024-04-25T07:59:34.614Z,8.27
2024-04-25T08:02:02.990Z,8.40
2024-04-25T08:04:31.387Z,8.55
2024-04-25T08:06:59.580Z,8.62
2024-04-25T08:09:28.037Z,8.64
2024-04-25T08:11:56.426Z,8.59
2024-04-25T08:14:24.821Z,8.48
2024-04-25T08:16:54.489Z,8.39
2024-04-25T08:19:22.710Z,8.33
2024-04-25T08:21:50.937Z,8.24
2024-04-25T08:24:20.554Z,8.15
2024-04-25T08:26:48.993Z,7.94
2024-04-25T08:29:18.262Z,7.78
2024-04-25T08:31:46.558Z,7.73
2024-04-25T08:34:14.918Z,7.79
2024-04-25T08:36:43.334Z,7.85
2024-04-25T08:39:11.717Z,7.97
2024-04-25T08:41:44.935Z,8.06
2024-04-25T08:44:15.142Z,8.13
2024-04-25T08:46:46.946Z,8.14
2024-04-25T08:49:19.910Z,8.09
2024-04-25T08:51:51.170Z,7.86
2024-04-25T08:54:22.586Z,7.72
2024-04-25T08:56:50.820Z,7.61
2024-04-25T08:59:19.160Z,7.57
2024-04-25T09:01:50.661Z,7.54
2024-04-25T09:04:21.063Z,7.53
2024-04-25T09:06:49.448Z,7.57
2024-04-25T09:09:17.966Z,7.63
2024-04-25T09:11:56.182Z,7.50
2024-04-25T09:14:25.076Z,7.41
2024-04-25T09:16:53.455Z,7.21
2024-04-25T09:19:26.144Z,7.17
2024-04-25T09:21:55.939Z,7.14
2024-04-25T09:24:24.307Z,7.08
2024-04-25T09:26:52.768Z,7.06
2024-04-25T09:29:22.002Z,7.09
2024-04-25T09:31:53.512Z,7.08
2024-04-25T09:34:22.511Z,7.02
2024-04-25T09:36:51.542Z,6.97
2024-04-25T09:39:20.193Z,6.92
2024-04-25T09:41:49.427Z,6.95
2024-04-25T09:44:18.442Z,7.00
2024-04-25T09:46:59.638Z,7.03
2024-04-25T09:49:34.986Z,7.09
2024-04-25T09:52:33.466Z,7.09
2024-04-25T09:55:05.224Z,7.07
2024-04-25T09:57:34.155Z,7.00
2024-04-25T10:00:02.370Z,6.95
2024-04-25T10:02:33.241Z,7.02
2024-04-25T10:05:02.193Z,7.17
2024-04-25T10:07:32.304Z,7.36
2024-04-25T10:10:01.216Z,7.50
2024-04-25T10:12:29.536Z,7.56
2024-04-25T10:14:59.727Z,7.56
2024-04-25T10:17:30.680Z,7.58
2024-04-25T10:20:04.998Z,7.65
2024-04-25T10:22:37.415Z,7.57
2024-04-25T10:25:15.892Z,7.55
2024-04-25T10:27:46.121Z,7.44
2024-04-25T10:30:15.717Z,7.37
2024-04-25T10:32:44.346Z,7.33
2024-04-25T10:35:16.303Z,7.35
2024-04-25T10:37:47.165Z,7.36
2024-04-25T10:40:17.991Z,7.40
2024-04-25T10:43:01.411Z,7.44
2024-04-25T10:45:33.751Z,7.46
2024-04-25T10:48:02.369Z,7.49
2024-04-25T10:50:31.249Z,7.60
2024-04-25T10:53:01.245Z,7.58
2024-04-25T10:55:29.860Z,7.59
2024-04-25T10:58:01.048Z,7.70
2024-04-25T11:00:29.529Z,7.86
2024-04-25T11:03:01.654Z,8.03
2024-04-25T11:05:30.653Z,8.15
2024-04-25T11:07:59.210Z,8.20
2024-04-25T11:10:28.257Z,8.18
2024-04-25T11:12:59.257Z,8.07
2024-04-25T11:15:27.768Z,8.10
2024-04-25T11:18:04.268Z,8.07
2024-04-25T11:20:38.318Z,8.00
2024-04-25T11:23:15.983Z,7.88
2024-04-25T11:25:48.871Z,7.77
2024-04-25T11:28:20.338Z,7.67
2024-04-25T11:30:50.259Z,7.59
2024-04-25T11:33:23.546Z,7.49
2024-04-25T11:35:52.456Z,7.32
2024-04-25T11:38:21.161Z,7.30
2024-04-25T11:40:50.440Z,7.25
2024-04-25T11:43:20.400Z,7.19
2024-04-25T11:45:49.034Z,7.15
2024-04-25T11:48:21.781Z,7.10
2024-04-25T11:50:50.319Z,7.06
2024-04-25T11:53:18.920Z,7.07
2024-04-25T11:55:47.376Z,7.05
2024-04-25T11:58:15.675Z,7.04
2024-04-25T12:00:49.215Z,7.08
2024-04-25T12:03:17.794Z,7.12
2024-04-25T12:05:47.078Z,7.14
2024-04-25T12:08:15.683Z,7.19
2024-04-25T12:10:54.192Z,7.22
2024-04-25T12:13:26.116Z,7.24
2024-04-25T12:15:54.334Z,7.28
2024-04-25T12:18:25.598Z,7.28
2024-04-25T12:20:55.256Z,7.22
2024-04-25T12:23:26.289Z,7.19
2024-04-25T12:25:55.750Z,7.09
2024-04-25T12:28:24.108Z,6.95
2024-04-25T12:30:52.546Z,6.90
2024-04-25T12:33:20.967Z,6.83
2024-04-25T12:35:49.366Z,6.84
2024-04-25T12:38:18.201Z,6.87
2024-04-25T12:40:46.520Z,6.85
2024-04-25T12:43:15.301Z,6.82
2024-04-25T12:45:48.146Z,6.74
2024-04-25T12:48:16.527Z,6.73
2024-04-25T12:50:44.718Z,6.68
2024-04-25T12:53:13.090Z,6.56
2024-04-25T12:55:41.584Z,6.51
2024-04-25T12:58:09.842Z,6.49
2024-04-25T13:00:38.201Z,6.49
2024-04-25T13:03:18.490Z,6.43
2024-04-25T13:05:47.828Z,6.44
2024-04-25T13:08:36.059Z,6.40
2024-04-25T13:11:04.756Z,6.32
2024-04-25T13:13:34.175Z,6.26
2024-04-25T13:16:02.697Z,6.10
2024-04-25T13:18:32.755Z,6.01
2024-04-25T13:21:03.855Z,5.99
2024-04-25T13:23:32.477Z,5.98
2024-04-25T13:26:00.805Z,5.96
2024-04-25T13:28:33.020Z,5.89
2024-04-25T13:31:04.369Z,5.82
2024-04-25T13:33:36.419Z,5.74
2024-04-25T13:36:05.947Z,5.65
2024-04-25T13:38:34.243Z,5.59
2024-04-25T13:41:02.509Z,5.53
2024-04-25T13:43:30.761Z,5.51
2024-04-25T13:45:59.398Z,5.48
2024-04-25T13:48:27.794Z,5.48
2024-04-25T13:50:56.202Z,5.38
2024-04-25T13:53:26.355Z,5.28
2024-04-25T13:55:57.873Z,5.22
2024-04-25T13:58:26.204Z,5.18
2024-04-25T14:00:54.401Z,5.07
2024-04-25T14:03:23.092Z,5.02
2024-04-25T14:05:51.941Z,4.98
2024-04-25T14:08:20.593Z,4.84
2024-04-25T14:10:51.131Z,4.74
2024-04-25T14:13:20.406Z,4.65
2024-04-25T14:15:48.846Z,4.57
2024-04-25T14:18:17.175Z,4.57
2024-04-25T14:20:45.841Z,4.52
2024-04-25T14:23:14.219Z,4.39
2024-04-25T14:26:01.119Z,4.33
2024-04-25T14:28:44.686Z,4.32
2024-04-25T14:31:14.305Z,4.32
2024-04-25T14:33:45.338Z,4.30
2024-04-25T14:36:13.963Z,4.27
2024-04-25T14:38:43.154Z,4.16
2024-04-25T14:41:12.246Z,4.14
2024-04-25T14:43:42.989Z,4.13
2024-04-25T14:46:11.746Z,4.07
2024-04-25T14:48:40.349Z,4.02
2024-04-25T14:51:08.811Z,3.98
2024-04-25T14:53:37.177Z,3.92
2024-04-25T14:56:06.093Z,3.86
2024-04-25T14:58:34.780Z,3.83
2024-04-25T15:01:03.042Z,3.80
2024-04-25T15:03:31.495Z,3.85
2024-04-25T15:06:00.369Z,3.87
2024-04-25T15:08:28.810Z,3.87
2024-04-25T15:10:57.050Z,3.86
2024-04-25T15:13:25.375Z,3.84
2024-04-25T15:15:58.563Z,3.84
2024-04-25T15:18:27.653Z,3.80
2024-04-25T15:20:56.141Z,3.79
2024-04-25T15:23:24.717Z,3.76
2024-04-25T15:25:53.456Z,3.69
2024-04-25T15:28:21.879Z,3.65
2024-04-25T15:30:50.282Z,3.67
2024-04-25T15:33:21.164Z,3.65
2024-04-25T15:35:49.587Z,3.56
2024-04-25T15:38:17.840Z,3.51
2024-04-25T15:40:46.115Z,3.50
2024-04-25T15:43:14.524Z,3.52
2024-04-25T15:45:42.686Z,3.51
2024-04-25T15:48:13.318Z,3.51
2024-04-25T15:50:41.769Z,3.47
2024-04-25T15:53:10.260Z,3.48
2024-04-25T15:55:38.680Z,3.43
2024-04-25T15:58:07.142Z,3.38
2024-04-25T16:00:35.455Z,3.33
2024-04-25T16:03:04.981Z,3.29
2024-04-25T16:05:33.695Z,3.33
2024-04-25T16:08:01.955Z,3.32
2024-04-25T16:10:30.320Z,3.38
2024-04-25T16:12:58.684Z,3.46
2024-04-25T16:15:27.102Z,3.51
2024-04-25T16:17:55.573Z,3.56
2024-04-25T16:20:24.091Z,3.62
2024-04-25T16:22:52.449Z,3.67
2024-04-25T16:25:20.963Z,3.72
2024-04-25T16:27:49.312Z,3.74
2024-04-25T16:30:17.629Z,3.80
2024-04-25T16:32:46.315Z,3.87
2024-04-25T16:35:14.949Z,3.90
2024-04-25T16:37:43.585Z,3.91
2024-04-25T16:40:12.004Z,3.95
2024-04-25T16:42:40.440Z,3.97
2024-04-25T16:45:08.930Z,3.94
2024-04-25T16:47:37.638Z,3.94
2024-04-25T16:50:06.747Z,4.00
2024-04-25T16:52:35.034Z,4.08
2024-04-25T16:55:03.606Z,4.15
2024-04-25T16:57:32.818Z,4.17
2024-04-25T17:00:01.129Z,4.20
2024-04-25T17:02:29.588Z,4.19
2024-04-25T17:04:57.943Z,4.15
2024-04-25T17:07:26.122Z,4.09
2024-04-25T17:09:54.491Z,4.05
2024-04-25T17:12:22.645Z,4.03
2024-04-25T17:14:50.997Z,4.02
2024-04-25T17:17:19.524Z,4.01
2024-04-25T17:19:47.906Z,3.95
2024-04-25T17:22:16.219Z,3.88
2024-04-25T17:24:44.660Z,3.81
2024-04-25T17:27:13.307Z,3.67
2024-04-25T17:29:42.509Z,3.63
2024-04-25T17:32:13.893Z,3.60
2024-04-25T17:34:44.183Z,3.63
2024-04-25T17:37:13.427Z,3.65
2024-04-25T17:39:41.865Z,3.68
2024-04-25T17:42:10.625Z,3.72
2024-04-25T17:44:40.914Z,3.74
2024-04-25T17:47:12.255Z,3.73
2024-04-25T17:49:40.952Z,3.69
2024-04-25T17:52:09.777Z,3.64
2024-04-25T17:54:38.124Z,3.59
2024-04-25T17:57:06.591Z,3.56
2024-04-25T17:59:35.143Z,3.55
2024-04-25T18:02:05.564Z,3.52
2024-04-25T18:04:34.874Z,3.50
2024-04-25T18:07:08.268Z,3.48
2024-04-25T18:09:36.689Z,3.45
2024-04-25T18:12:05.218Z,3.44
2024-04-25T18:14:33.726Z,3.41
2024-04-25T18:17:02.115Z,3.39
2024-04-25T18:19:30.480Z,3.38
2024-04-25T18:22:00.182Z,3.40
2024-04-25T18:24:30.340Z,3.42
2024-04-25T18:26:58.878Z,3.43
2024-04-25T18:29:27.351Z,3.42
2024-04-25T18:31:55.589Z,3.42
2024-04-25T18:34:23.948Z,3.43
2024-04-25T18:36:52.383Z,3.42
2024-04-25T18:39:20.782Z,3.38
2024-04-25T18:41:49.135Z,3.39
2024-04-25T18:44:17.523Z,3.40
2024-04-25T18:46:45.845Z,3.42
2024-04-25T18:49:14.395Z,3.48
2024-04-25T18:51:44.603Z,3.53
2024-04-25T18:54:13.566Z,3.56
2024-04-25T18:56:42.069Z,3.54
2024-04-25T18:59:10.827Z,3.55
2024-04-25T19:01:39.164Z,3.54
2024-04-25T19:04:07.561Z,3.53
2024-04-25T19:06:36.181Z,3.49
2024-04-25T19:09:04.684Z,3.49
2024-04-25T19:11:33.110Z,3.49
2024-04-25T19:14:04.154Z,3.56
2024-04-25T19:16:32.577Z,3.61
2024-04-25T19:19:01.176Z,3.64
2024-04-25T19:21:43.079Z,3.64
2024-04-25T19:24:13.952Z,3.66
2024-04-25T19:26:43.221Z,3.67
2024-04-25T19:29:18.338Z,3.65
2024-04-25T19:31:48.780Z,3.64
2024-04-25T19:34:24.079Z,3.65
2024-04-25T19:36:53.371Z,3.68
2024-04-25T19:39:21.600Z,3.69
2024-04-25T19:41:50.527Z,3.64
2024-04-25T19:44:19.340Z,3.62
2024-04-25T19:46:48.096Z,3.60
2024-04-25T19:49:19.559Z,3.59
2024-04-25T19:51:48.972Z,3.60
2024-04-25T19:54:20.199Z,3.62
2024-04-25T19:56:48.946Z,3.66
2024-04-25T19:59:18.362Z,3.65
2024-04-25T20:01:50.289Z,3.67
2024-04-25T20:04:19.649Z,3.72
2024-04-25T20:06:51.685Z,3.76
2024-04-25T20:09:20.863Z,3.76
2024-04-25T20:11:49.312Z,3.72
2024-04-25T20:14:17.773Z,3.64
2024-04-25T20:16:46.796Z,3.60
2024-04-25T20:19:33.664Z,3.57
2024-04-25T20:22:02.170Z,3.62
2024-04-25T20:24:30.559Z,3.66
2024-04-25T20:26:59.062Z,3.69
2024-04-25T20:29:29.800Z,3.68
2024-04-25T20:31:58.918Z,3.65
2024-04-25T20:34:27.423Z,3.64
2024-04-25T20:36:55.754Z,3.62
2024-04-25T20:39:24.411Z,3.65
2024-04-25T20:41:53.866Z,3.66
2024-04-25T20:44:26.250Z,3.72
2024-04-25T20:46:54.670Z,3.73
2024-04-25T20:49:23.067Z,3.75
2024-04-25T20:51:51.428Z,3.77
2024-04-25T20:54:19.567Z,3.78
2024-04-25T20:56:47.904Z,3.75
2024-04-25T20:59:16.138Z,3.73
2024-04-25T21:01:45.515Z,3.71
2024-04-25T21:04:13.844Z,3.72
2024-04-25T21:06:44.811Z,3.75
2024-04-25T21:09:14.895Z,3.76
2024-04-25T21:11:43.031Z,3.75
2024-04-25T21:14:11.292Z,3.73
2024-04-25T21:16:44.045Z,3.71
2024-04-25T21:19:12.786Z,3.68
2024-04-25T21:21:45.572Z,3.65
2024-04-25T21:24:14.843Z,3.64
2024-04-25T21:26:49.611Z,3.66
2024-04-25T21:29:18.066Z,3.72
2024-04-25T21:31:46.683Z,3.75
2024-04-25T21:34:16.071Z,3.78
2024-04-25T21:36:44.326Z,3.84
2024-04-25T21:39:13.006Z,3.86
2024-04-25T21:41:42.709Z,3.85
2024-04-25T21:44:12.251Z,3.84
2024-04-25T21:46:43.026Z,3.86
2024-04-25T21:49:13.705Z,3.90
2024-04-25T21:51:46.377Z,3.93
2024-04-25T21:54:15.137Z,3.93
2024-04-25T21:56:44.747Z,3.94
2024-04-25T21:59:13.190Z,3.92
2024-04-25T22:01:54.829Z,3.87
2024-04-25T22:04:23.570Z,3.85
2024-04-25T22:06:51.879Z,3.78
2024-04-25T22:09:20.162Z,3.78
2024-04-25T22:11:48.567Z,3.80
2024-04-25T22:14:16.820Z,3.83
2024-04-25T22:16:45.202Z,3.86
2024-04-25T22:19:13.663Z,3.89
2024-04-25T22:21:48.560Z,3.88
2024-04-25T22:24:18.065Z,3.84
2024-04-25T22:26:47.817Z,3.79
2024-04-25T22:29:16.163Z,3.72
2024-04-25T22:31:44.874Z,3.67
2024-04-25T22:34:13.514Z,3.67
2024-04-25T22:36:41.755Z,3.72
2024-04-25T22:39:10.313Z,3.75
2024-04-25T22:41:41.092Z,3.75
2024-04-25T22:44:09.527Z,3.80
2024-04-25T22:46:38.009Z,3.81
2024-04-25T22:49:06.319Z,3.77
2024-04-25T22:51:34.662Z,3.75
2024-04-25T22:54:03.026Z,3.72
2024-04-25T22:56:31.460Z,3.72
2024-04-25T22:58:59.819Z,3.74
2024-04-25T23:01:31.314Z,3.75
2024-04-25T23:04:00.767Z,3.76
2024-04-25T23:06:29.302Z,3.77
2024-04-25T23:08:59.101Z,3.79
2024-04-25T23:11:27.825Z,3.80
2024-04-25T23:13:56.072Z,3.78
2024-04-25T23:16:24.534Z,3.74
2024-04-25T23:18:53.099Z,3.75
2024-04-25T23:21:21.424Z,3.75
2024-04-25T23:23:49.642Z,3.75
2024-04-25T23:26:17.990Z,3.76
2024-04-25T23:28:46.286Z,3.76
2024-04-25T23:31:19.385Z,3.71
2024-04-25T23:33:48.009Z,3.70
2024-04-25T23:36:16.478Z,3.68
2024-04-25T23:38:45.246Z,3.67
2024-04-25T23:41:13.518Z,3.67
2024-04-25T23:43:41.863Z,3.68
2024-04-25T23:46:10.082Z,3.70
2024-04-25T23:48:40.549Z,3.70
2024-04-25T23:51:09.804Z,3.71
2024-04-25T23:53:38.591Z,3.70
2024-04-25T23:56:09.766Z,3.65
2024-04-25T23:58:38.561Z,3.60
